Flight Track Log - Related Links

Times and Time Zones

All times are in EDT time to prevent confusion due to time zone crossing. See the BJS542 flight status page for this flight to view local times or setup timezone preferences in your user account.

Time Position Orientation Groundspeed Altitude Reporting Facility
EDT Latitude Longitude Course Direction KTS MPH feet Rate Location/Type
Fri 02:23:20 PM 33.0083 -80.0042 13° North 255 293 41,000  Level Jacksonville Center
Fri 02:24:20 PM 33.0953 -79.9792 14° North 274 315 11,400 -12,900 Descending Jacksonville Center
Fri 02:25:20 PM 33.1803 -79.9542 14° North 291 335 15,200 3,650 Climbing Jacksonville Center
Fri 02:26:20 PM 33.2736 -79.9261 14° North 323 372 18,700 3,450 Climbing Jacksonville Center
Fri 02:27:00 PM 33.5454 -79.8395 13° North  Level FlightAware Approximate
Fri 02:27:20 PM 33.3731 -79.8981 13° North 338 389 22,100  Level Jacksonville Center
Fri 02:28:00 PM 33.6566 -79.8077 13° North  Level FlightAware Approximate
Fri 02:28:20 PM 33.4789 -79.8719 12° North 365 420 23,200  Level Jacksonville Center
Fri 02:29:20 PM 33.5908 -79.8408 13° North 382 440 25,400 2,200 Climbing Jacksonville Center
Fri 02:30:20 PM 33.7111 -79.8067 13° North 417 480 27,600 2,200 Climbing Jacksonville Center
Fri 02:31:20 PM 33.8333 -79.7750 12° North 432 497 29,800 2,200 Climbing Jacksonville Center
Fri 02:32:20 PM 33.9600 -79.7453 11° North 455 524 32,000 1,700 Climbing Jacksonville Center
Fri 02:33:20 PM 34.0917 -79.7631 354° North 460 529 33,200 1,000 Climbing Jacksonville Center
Fri 02:34:20 PM 34.2300 -79.7783 355° North 479 551 34,000 1,100 Climbing Jacksonville Center
Fri 02:35:20 PM 34.3658 -79.7986 353° North 485 558 35,400 1,803 Climbing Jacksonville Center
Fri 02:37:23 PM 34.6239 -79.7311 12° North 459 528 39,500 1,826 Climbing Washington Center
Fri 02:38:24 PM 34.7372 -79.6483 31° Northeast 459 528 41,000 645 Climbing Washington Center
Fri 02:39:24 PM 34.8461 -79.5728 30° Northeast 459 528 40,800 -942 Descending Washington Center
Fri 02:40:25 PM 34.9675 -79.5053 24° Northeast 459 528 39,100 -1,550 Descending Washington Center
Fri 02:41:24 PM 35.0906 -79.4400 23° Northeast 464 534 37,700 -1,462 Descending Washington Center
Fri 02:42:24 PM 35.2178 -79.3775 22° Northeast 474 545 36,200 -1,587 Descending Washington Center
Fri 02:43:25 PM 35.3450 -79.3147 22° Northeast 494 568 34,500 -1,884 Descending Washington Center
Fri 02:44:25 PM 35.4642 -79.2361 28° Northeast 492 566 32,400 -1,780 Descending Washington Center
Fri 02:45:23 PM 35.5756 -79.1392 35° Northeast 485 558 31,000 -1,373 Descending Washington Center
Fri 02:46:23 PM 35.6744 -79.0464 37° Northeast 472 543 29,700 -992 Descending Washington Center
Fri 02:47:24 PM 35.7792 -78.9536 36° Northeast 467 537 29,000 -347 Descending Washington Center
Fri 02:48:24 PM 35.8819 -78.8581 37° Northeast 467 537 29,000  Level Washington Center
Fri 02:49:25 PM 35.9847 -78.7622 37° Northeast 467 537 29,000  Level Washington Center
Fri 02:50:25 PM 36.0894 -78.6636 37° Northeast 467 537 29,000  Level Washington Center
Fri 02:51:23 PM 36.1964 -78.5672 36° Northeast 467 537 29,000  Level Washington Center
Fri 02:52:23 PM 36.3031 -78.4683 37° Northeast 467 537 29,000  Level Washington Center
Fri 02:53:24 PM 36.4033 -78.3767 36° Northeast 462 532 29,000  Level Washington Center
Fri 02:54:22 PM 36.5056 -78.2819 37° Northeast 462 532 29,000 -454 Level Washington Center
Fri 02:55:23 PM 36.6058 -78.1844 38° Northeast 457 526 28,100 -984 Descending Washington Center
Fri 02:56:24 PM 36.6975 -78.0944 38° Northeast 463 533 27,000 -545 Descending Washington Center
Fri 02:57:24 PM 36.7997 -77.9964 38° Northeast 463 533 27,000 -595 Level Washington Center
Fri 02:58:25 PM 36.9117 -77.9247 27° Northeast 458 527 25,800 -1,462 Descending Washington Center
Fri 02:59:23 PM 37.0253 -77.8683 22° Northeast 445 512 24,100 -1,412 Descending Washington Center
Fri 03:00:24 PM 37.1328 -77.8114 23° Northeast 428 493 23,000 -545 Descending Washington Center
Fri 03:01:24 PM 37.2381 -77.7572 22° Northeast 416 479 23,000  Level Washington Center
Fri 03:02:25 PM 37.3433 -77.7000 23° Northeast 411 473 23,000  Level Washington Center
Fri 03:03:23 PM 37.4486 -77.6428 23° Northeast 406 467 23,000  Level Washington Center
Fri 03:04:24 PM 37.5517 -77.5906 22° Northeast 395 455 23,000  Level Washington Center
Fri 03:05:24 PM 37.6528 -77.5328 24° Northeast 395 455 23,000  Level Washington Center
Fri 03:06:25 PM 37.7558 -77.4803 22° Northeast 395 455 23,000  Level Washington Center
Fri 03:07:23 PM 37.8569 -77.4250 23° Northeast 395 455 23,000  Level Washington Center
Fri 03:08:24 PM 37.9578 -77.3694 23° Northeast 395 455 23,000 -645 Level Washington Center
Fri 03:09:24 PM 38.0608 -77.3167 22° Northeast 395 455 21,700 -1,750 Descending Washington Center
Fri 03:10:24 PM 38.1617 -77.2608 24° Northeast 400 460 19,500 -2,118 Descending Washington Center
Fri 03:11:23 PM 38.2583 -77.2075 23° Northeast 389 448 17,500 -1,916 Descending Washington Center
Fri 03:12:23 PM 38.3506 -77.1592 22° Northeast 372 428 15,700 -1,736 Descending Washington Center
Fri 03:13:24 PM 38.4289 -77.0811 38° Northeast 358 412 14,000 -1,623 Descending Washington Center
Fri 03:14:25 PM 38.4964 -77.0003 43° Northeast 340 391 12,400 -1,339 Descending Washington Center
Fri 03:15:25 PM 38.5619 -76.9219 43° Northeast 329 379 11,300 -1,017 Descending Washington Center
Fri 03:16:23 PM 38.6211 -76.8486 44° Northeast 307 353 10,400 -915 Descending Washington Center
Fri 03:17:23 PM 38.6783 -76.7778 44° Northeast 293 337 9,500 -1,077 Descending Washington Center
Fri 03:19:38 PM 38.7667 -76.5833 60° Northeast 261 300 6,900 -1,262 Descending Potomac TRACON
Fri 03:20:38 PM 38.8167 -76.5167 46° Northeast 245 282 5,400 -1,450 Descending Potomac TRACON
Fri 03:21:38 PM 38.8833 -76.4833 21° North 253 291 4,000 -694 Descending Potomac TRACON
Fri 03:22:39 PM 38.9500 -76.4833 360° North 240 276 4,000  Level Potomac TRACON
Fri 03:23:39 PM 39.0167 -76.4667 11° North 243 280 4,000 -50 Level Potomac TRACON
Fri 03:24:39 PM 39.0833 -76.4500 11° North 255 293 3,900 -800 Descending Potomac TRACON
Fri 03:25:39 PM 39.1500 -76.4500 360° North 262 302 2,400 -950 Descending Potomac TRACON
Fri 03:26:39 PM 39.2167 -76.4500 360° North 218 251 2,000 -397 Descending Potomac TRACON
Fri 03:27:40 PM 39.2833 -76.4500 360° North 206 237 1,600 -248 Descending Potomac TRACON
Fri 03:28:40 PM 39.3167 -76.4833 322° Northwest 182 209 1,500 -50 Descending Potomac TRACON
Fri 03:29:40 PM 39.3500 -76.5167 322° Northwest 186 214 1,500 -100 Level Potomac TRACON
Fri 03:30:40 PM 39.3667 -76.4667 67° East 173 199 1,300 -550 Descending Potomac TRACON
Fri 03:31:40 PM 39.3500 -76.4333 123° Southeast 128 147 400 -900 Descending Potomac TRACON
Fri 03:33:00 PM 39.3257 -76.4138 110° East  Level Estimated
Fri 03:40:00 PM 39.3257 -76.4138 110° East  Level Estimated
Fri 03:41:00 PM 39.3257 -76.4138 110° East  Level Estimated
Fri 03:42:00 PM 39.3257 -76.4138 110° East  Level Estimated
Fri 03:43:00 PM 39.3257 -76.4138 110° East  Level Estimated
Fri 03:44:00 PM 39.3257 -76.4138 110° East  Level Estimated
Fri 03:45:00 PM 39.3257 -76.4138 110° East  Level Estimated
Fri 03:46:00 PM 39.3257 -76.4138 110° East  Level Estimated
Fri 03:47:00 PM 39.3257 -76.4138 110° East  Level Estimated

Login

Don't have an account? Register now (free) for customized features, flight alerts, and more!